createdAt,value
2019-04-28T00:04:34.154Z,4.20
2019-04-28T00:09:41.359Z,3.90
2019-04-28T00:14:46.767Z,3.87
2019-04-28T00:19:54.182Z,4.20
2019-04-28T00:25:04.299Z,3.67
2019-04-28T00:30:11.758Z,3.63
2019-04-28T00:35:17.381Z,3.90
2019-04-28T00:40:22.833Z,3.53
2019-04-28T00:45:28.335Z,3.53
2019-04-28T00:50:33.872Z,3.20
2019-04-28T00:55:39.272Z,3.37
2019-04-28T01:00:46.519Z,3.20
2019-04-28T01:05:52.085Z,3.90
2019-04-28T01:10:57.572Z,3.77
2019-04-28T01:16:19.394Z,3.40
2019-04-28T01:21:30.010Z,2.90
2019-04-28T01:26:35.495Z,2.87
2019-04-28T01:31:49.407Z,3.97
2019-04-28T01:36:54.970Z,3.57
2019-04-28T01:42:00.444Z,3.17
2019-04-28T01:47:05.939Z,3.77
2019-04-28T01:52:11.375Z,3.53
2019-04-28T01:57:16.841Z,3.23
2019-04-28T02:02:22.311Z,3.60
2019-04-28T02:07:27.791Z,3.20
2019-04-28T02:12:33.426Z,3.03
2019-04-28T02:17:40.180Z,3.50
2019-04-28T02:22:57.070Z,2.60
2019-04-28T02:28:02.528Z,2.93
2019-04-28T02:33:07.977Z,3.43
2019-04-28T02:38:13.378Z,3.30
2019-04-28T02:43:20.942Z,3.67
2019-04-28T02:48:27.303Z,3.33
2019-04-28T02:53:35.427Z,2.90
2019-04-28T02:58:41.688Z,2.93
2019-04-28T03:03:47.313Z,3.43
2019-04-28T03:08:52.884Z,4.00
2019-04-28T03:14:00.777Z,3.00
2019-04-28T03:19:05.484Z,3.30
2019-04-28T03:24:13.349Z,3.20
2019-04-28T03:29:26.677Z,3.40
2019-04-28T03:34:53.043Z,3.50
2019-04-28T03:39:55.814Z,3.13
2019-04-28T03:45:02.888Z,3.53
2019-04-28T03:50:10.486Z,3.17
2019-04-28T03:55:15.643Z,3.40
2019-04-28T04:00:21.981Z,3.70
2019-04-28T04:05:30.432Z,2.80
2019-04-28T04:10:43.998Z,2.80
2019-04-28T04:16:07.147Z,2.60
2019-04-28T04:21:13.067Z,2.93
2019-04-28T04:26:21.014Z,3.23
2019-04-28T04:31:25.803Z,3.70
2019-04-28T04:36:31.388Z,3.27
2019-04-28T04:41:36.932Z,3.63
2019-04-28T04:46:42.446Z,3.00
2019-04-28T04:51:50.680Z,3.47
2019-04-28T04:56:55.126Z,3.80
2019-04-28T05:02:29.613Z,3.43
2019-04-28T05:07:32.757Z,3.33
2019-04-28T05:12:38.228Z,2.77
2019-04-28T05:17:43.669Z,3.60
2019-04-28T05:23:00.272Z,3.67
2019-04-28T05:28:05.982Z,3.23
2019-04-28T05:33:13.703Z,3.07
2019-04-28T05:38:20.144Z,2.97
2019-04-28T05:43:25.714Z,3.43
2019-04-28T05:48:52.970Z,3.30
2019-04-28T05:54:06.666Z,3.80
2019-04-28T05:59:16.576Z,3.90
2019-04-28T06:04:25.360Z,4.67
2019-04-28T06:09:39.741Z,4.07
2019-04-28T06:14:45.070Z,3.93
2019-04-28T06:19:50.581Z,4.43
2019-04-28T06:24:56.038Z,3.53
2019-04-28T06:30:01.487Z,2.90
2019-04-28T06:35:07.121Z,3.23
2019-04-28T06:40:12.596Z,3.60
2019-04-28T06:45:18.035Z,3.10
2019-04-28T06:50:23.484Z,2.67
2019-04-28T06:55:28.920Z,3.00
2019-04-28T07:00:34.530Z,3.40
2019-04-28T07:05:40.028Z,2.70
2019-04-28T07:10:45.673Z,2.90
2019-04-28T07:15:51.177Z,2.87
2019-04-28T07:21:21.717Z,2.20
2019-04-28T07:26:27.231Z,2.00
2019-04-28T07:31:32.949Z,2.33
2019-04-28T07:36:38.535Z,1.83
2019-04-28T07:41:43.999Z,2.40
2019-04-28T07:46:49.475Z,2.13
2019-04-28T07:52:06.427Z,2.10
2019-04-28T07:57:12.337Z,2.23
2019-04-28T08:02:17.762Z,2.23
2019-04-28T08:07:23.438Z,2.47
2019-04-28T08:12:29.270Z,2.20
2019-04-28T08:17:36.793Z,2.17
2019-04-28T08:22:42.487Z,2.20
2019-04-28T08:27:48.428Z,1.97
2019-04-28T08:33:05.288Z,2.03
2019-04-28T08:38:10.988Z,2.30
2019-04-28T08:43:16.449Z,1.70
2019-04-28T08:48:21.913Z,2.13
2019-04-28T08:53:27.477Z,2.57
2019-04-28T08:58:32.919Z,1.90
2019-04-28T09:03:38.393Z,1.80
2019-04-28T09:08:44.051Z,1.80
2019-04-28T09:13:49.589Z,1.83
2019-04-28T09:18:55.186Z,1.93
2019-04-28T09:24:00.715Z,1.87
2019-04-28T09:29:06.403Z,1.77
2019-04-28T09:34:11.978Z,1.80
2019-04-28T09:39:19.259Z,1.80
2019-04-28T09:44:25.010Z,1.40
2019-04-28T09:49:30.548Z,1.97
2019-04-28T09:54:36.086Z,1.53
2019-04-28T09:59:41.673Z,1.90
2019-04-28T10:04:47.211Z,1.67
2019-04-28T10:09:52.835Z,1.87
2019-04-28T10:14:58.297Z,2.10
2019-04-28T10:20:04.060Z,1.13
2019-04-28T10:25:09.851Z,1.27
2019-04-28T10:30:15.609Z,1.20
2019-04-28T10:35:21.275Z,1.03
2019-04-28T10:40:42.498Z,1.20
2019-04-28T10:45:49.460Z,1.50
2019-04-28T10:50:54.919Z,1.10
2019-04-28T10:56:00.422Z,1.23
2019-04-28T11:01:06.011Z,1.50
2019-04-28T11:06:12.733Z,1.30
2019-04-28T11:11:24.583Z,0.80
2019-04-28T11:16:33.739Z,1.10
2019-04-28T11:21:39.367Z,1.73
2019-04-28T11:26:46.888Z,1.47
2019-04-28T11:31:52.566Z,1.10
2019-04-28T11:36:58.228Z,1.03
2019-04-28T11:42:03.716Z,1.10
2019-04-28T11:47:10.909Z,1.10
2019-04-28T11:52:16.810Z,0.90
2019-04-28T11:57:22.408Z,1.17
2019-04-28T12:02:28.147Z,0.97
2019-04-28T12:07:33.671Z,0.90
2019-04-28T12:12:58.416Z,0.80
2019-04-28T12:18:38.116Z,0.80
2019-04-28T12:23:43.946Z,0.73
2019-04-28T12:28:49.540Z,1.00
2019-04-28T12:33:55.009Z,0.80
2019-04-28T12:39:00.553Z,1.13
2019-04-28T12:44:06.088Z,0.87
2019-04-28T12:49:29.098Z,0.50
2019-04-28T12:54:36.200Z,0.97
2019-04-28T12:59:46.802Z,0.60
2019-04-28T13:04:55.689Z,0.80
2019-04-28T13:10:01.167Z,0.87
2019-04-28T13:15:06.750Z,0.80
2019-04-28T13:20:12.186Z,0.80
2019-04-28T13:25:17.721Z,0.70
2019-04-28T13:30:23.149Z,0.80
2019-04-28T13:35:28.677Z,0.80
2019-04-28T13:40:35.915Z,0.80
2019-04-28T13:45:41.640Z,0.70
2019-04-28T13:50:48.959Z,0.83
2019-04-28T13:56:01.681Z,1.00
2019-04-28T14:01:24.476Z,0.80
2019-04-28T14:06:31.435Z,0.77
2019-04-28T14:11:36.940Z,0.80
2019-04-28T14:16:42.507Z,0.73
2019-04-28T14:21:48.053Z,0.90
2019-04-28T14:26:53.499Z,0.90
2019-04-28T14:31:59.019Z,1.10
2019-04-28T14:37:04.802Z,0.70
2019-04-28T14:42:10.233Z,0.80
2019-04-28T14:47:15.775Z,0.80
2019-04-28T14:52:21.234Z,0.70
2019-04-28T14:57:26.827Z,1.00
2019-04-28T15:02:53.968Z,1.00
2019-04-28T15:08:27.043Z,1.30
2019-04-28T15:13:32.526Z,1.40
2019-04-28T15:18:38.215Z,1.17
2019-04-28T15:23:43.721Z,1.40
2019-04-28T15:28:49.165Z,0.90
2019-04-28T15:33:54.664Z,1.47
2019-04-28T15:39:00.196Z,1.30
2019-04-28T15:44:05.864Z,1.77
2019-04-28T15:49:11.321Z,1.30
2019-04-28T15:54:16.976Z,0.93
2019-04-28T15:59:24.372Z,1.00
2019-04-28T16:04:29.839Z,0.90
2019-04-28T16:09:35.483Z,0.90
2019-04-28T16:14:40.997Z,1.10
2019-04-28T16:19:46.506Z,0.90
2019-04-28T16:24:52.021Z,1.10
2019-04-28T16:29:57.429Z,1.47
2019-04-28T16:35:02.891Z,1.00
2019-04-28T16:40:09.582Z,0.80
2019-04-28T16:45:18.483Z,0.90
2019-04-28T16:50:23.156Z,1.00
2019-04-28T16:55:36.012Z,0.93
2019-04-28T17:01:09.247Z,0.90
2019-04-28T17:06:14.968Z,1.97
2019-04-28T17:11:20.408Z,1.00
2019-04-28T17:16:25.856Z,0.90
2019-04-28T17:21:31.314Z,0.90
2019-04-28T17:26:36.743Z,1.00
2019-04-28T17:31:42.162Z,1.10
2019-04-28T17:36:47.726Z,0.90
2019-04-28T17:41:53.272Z,1.10
2019-04-28T17:46:58.842Z,1.10
2019-04-28T17:52:04.720Z,1.30
2019-04-28T17:57:10.167Z,1.20
2019-04-28T18:02:49.541Z,1.30
2019-04-28T18:07:59.943Z,1.57
2019-04-28T18:13:05.544Z,1.63
2019-04-28T18:18:17.881Z,9.83
2019-04-28T18:23:23.449Z,1.60
2019-04-28T18:28:28.868Z,1.47
2019-04-28T18:34:02.314Z,1.37
2019-04-28T18:39:25.997Z,1.73
2019-04-28T18:44:31.551Z,1.33
2019-04-28T18:49:37.052Z,1.30
2019-04-28T18:54:42.529Z,1.30
2019-04-28T18:59:48.219Z,1.43
2019-04-28T19:04:53.707Z,1.60
2019-04-28T19:10:05.178Z,1.57
2019-04-28T19:15:24.604Z,1.70
2019-04-28T19:20:30.084Z,1.40
2019-04-28T19:25:35.565Z,1.30
2019-04-28T19:30:41.492Z,2.10
2019-04-28T19:35:46.962Z,2.43
2019-04-28T19:40:52.392Z,2.10
2019-04-28T19:46:00.095Z,1.90
2019-04-28T19:51:05.727Z,2.00
2019-04-28T19:56:33.076Z,2.10
2019-04-28T20:01:38.624Z,1.57
2019-04-28T20:06:44.180Z,1.93
2019-04-28T20:11:49.767Z,1.80
2019-04-28T20:16:55.288Z,2.13
2019-04-28T20:22:00.788Z,1.90
2019-04-28T20:27:06.397Z,1.80
2019-04-28T20:32:11.802Z,1.90
2019-04-28T20:37:30.362Z,2.10
2019-04-28T20:43:02.057Z,2.00
2019-04-28T20:48:07.793Z,2.10
2019-04-28T20:53:13.256Z,1.87
2019-04-28T20:58:18.738Z,2.00
2019-04-28T21:03:24.165Z,2.37
2019-04-28T21:08:29.638Z,2.70
2019-04-28T21:13:35.079Z,2.30
2019-04-28T21:18:40.520Z,2.20
2019-04-28T21:23:45.928Z,2.37
2019-04-28T21:28:51.372Z,2.00
2019-04-28T21:33:56.841Z,2.63
2019-04-28T21:39:02.496Z,2.23
2019-04-28T21:44:17.172Z,2.57
2019-04-28T21:49:27.611Z,2.50
2019-04-28T21:54:33.085Z,2.90
2019-04-28T21:59:38.494Z,2.93
2019-04-28T22:04:46.759Z,2.93
2019-04-28T22:09:51.232Z,2.57
2019-04-28T22:14:56.777Z,2.50
2019-04-28T22:20:02.252Z,3.00
2019-04-28T22:25:12.927Z,2.67
2019-04-28T22:30:18.331Z,2.60
2019-04-28T22:35:23.765Z,2.90
2019-04-28T22:40:29.201Z,2.83
2019-04-28T22:45:34.634Z,2.70
2019-04-28T22:50:44.279Z,2.50
2019-04-28T22:55:58.701Z,2.53
2019-04-28T23:01:21.698Z,2.57
2019-04-28T23:06:27.366Z,2.67
2019-04-28T23:11:32.758Z,2.70
2019-04-28T23:16:38.220Z,2.83
2019-04-28T23:22:01.221Z,3.30
2019-04-28T23:27:06.755Z,3.07
2019-04-28T23:32:12.299Z,3.80
2019-04-28T23:37:17.774Z,3.73
2019-04-28T23:42:39.825Z,3.33
2019-04-28T23:47:45.273Z,4.03
2019-04-28T23:53:05.346Z,3.67
2019-04-28T23:58:10.801Z,3.63
